Time;durP1;ratioP1;P1;durP2;ratioP2;P2;SDS_P1;SDS_P2;PMS_P1;PMS_P2;Temp;Humidity;BMP_temperature;BMP_pressure;BME280_temperature;BME280_humidity;BME280_pressure;Samples;Min_cycle;Max_cycle;Signal;HPM_P1;HPM_P2
2023/12/19 00:01:02;;;;;;;3.75;3.30;;;;;;;20.25;41.48;102217.97;5074821;28;20048;-70
2023/12/19 00:03:28;;;;;;;3.13;2.83;;;;;;;20.25;41.54;102208.22;5088026;28;20047;-69
2023/12/19 00:05:53;;;;;;;3.97;3.20;;;;;;;20.15;41.57;102197.72;5070948;28;20032;-70
2023/12/19 00:08:19;;;;;;;3.47;3.15;;;;;;;20.21;41.57;102202.41;5075510;28;20082;-70
2023/12/19 00:10:45;;;;;;;4.05;3.28;;;;;;;20.19;41.51;102177.09;5078265;28;20391;-70
2023/12/19 00:13:10;;;;;;;4.25;3.03;;;;;;;20.18;41.55;102164.84;5084928;28;20044;-70
2023/12/19 00:15:36;;;;;;;3.85;3.00;;;;;;;20.16;41.63;102165.00;5078898;28;20056;-70
2023/12/19 00:18:01;;;;;;;4.70;3.20;;;;;;;20.12;41.71;102155.72;5096704;28;20039;-69
2023/12/19 00:20:28;;;;;;;3.88;3.10;;;;;;;20.13;41.62;102148.59;5084528;28;20162;-70
2023/12/19 00:22:54;;;;;;;3.80;3.40;;;;;;;20.04;41.47;102117.75;5084793;28;20032;-69
2023/12/19 00:25:22;;;;;;;3.38;3.05;;;;;;;20.12;41.61;102149.59;5070708;28;20039;-69
2023/12/19 00:27:49;;;;;;;3.40;3.05;;;;;;;20.12;41.55;102154.88;5083089;28;20488;-69
2023/12/19 00:30:14;;;;;;;3.63;2.95;;;;;;;20.06;41.59;102155.47;5078733;28;20470;-70
2023/12/19 00:32:40;;;;;;;4.15;3.00;;;;;;;20.13;41.67;102170.59;5066215;28;20039;-69
2023/12/19 00:35:06;;;;;;;3.65;2.97;;;;;;;20.13;41.77;102159.19;5074938;28;20028;-70
2023/12/19 00:37:32;;;;;;;3.92;3.30;;;;;;;20.13;41.55;102167.94;5082274;28;20059;-69
2023/12/19 00:39:57;;;;;;;3.75;2.97;;;;;;;20.10;41.64;102148.88;5085514;28;20687;-69
2023/12/19 00:42:23;;;;;;;5.50;3.15;;;;;;;20.12;41.58;102157.53;5083945;28;20039;-70
2023/12/19 00:44:48;;;;;;;4.63;3.30;;;;;;;20.02;41.63;102131.13;5080742;28;20032;-69
2023/12/19 00:47:14;;;;;;;3.20;2.78;;;;;;;20.02;41.75;102152.28;5088972;28;20048;-69
2023/12/19 00:49:39;;;;;;;4.32;3.00;;;;;;;20.01;41.78;102149.78;5076023;28;20040;-70
2023/12/19 00:52:05;;;;;;;3.78;3.00;;;;;;;20.01;41.80;102147.97;5075987;28;20050;-69
2023/12/19 00:54:30;;;;;;;4.18;3.13;;;;;;;19.85;41.88;102124.84;5074137;28;20043;-69
2023/12/19 00:56:56;;;;;;;3.83;3.30;;;;;;;20.02;41.84;102146.16;5077772;28;20036;-69
2023/12/19 00:59:21;;;;;;;3.40;2.97;;;;;;;20.01;41.70;102128.63;5073664;28;20060;-70
2023/12/19 01:01:47;;;;;;;3.88;3.15;;;;;;;20.02;41.75;102120.56;5077238;28;20051;-69
2023/12/19 01:04:12;;;;;;;4.30;3.10;;;;;;;19.97;41.93;102128.13;5084526;28;20054;-69
2023/12/19 01:06:38;;;;;;;5.30;3.15;;;;;;;19.95;41.93;102126.59;5075007;28;20040;-69
2023/12/19 01:09:05;;;;;;;4.18;2.92;;;;;;;19.97;41.96;102132.56;5077860;28;20032;-69
2023/12/19 01:11:30;;;;;;;3.22;2.90;;;;;;;19.99;41.93;102125.31;5085383;28;20398;-69
2023/12/19 01:13:56;;;;;;;3.40;2.92;;;;;;;20.00;41.84;102127.81;5066273;28;20118;-69
2023/12/19 01:16:21;;;;;;;4.18;2.85;;;;;;;19.91;41.93;102118.13;5079082;28;20044;-69
2023/12/19 01:18:47;;;;;;;4.03;3.10;;;;;;;19.79;41.72;102092.88;5069116;28;20043;-69
2023/12/19 01:21:13;;;;;;;3.50;2.70;;;;;;;19.99;41.72;102123.50;5075578;28;20032;-70
2023/12/19 01:23:39;;;;;;;3.50;2.85;;;;;;;19.98;41.88;102136.88;5082755;28;20037;-69
2023/12/19 01:26:04;;;;;;;4.93;3.05;;;;;;;19.98;41.88;102121.00;5079828;28;20040;-69
2023/12/19 01:28:30;;;;;;;3.30;2.97;;;;;;;19.76;41.83;102080.81;5081516;28;20036;-69
2023/12/19 01:30:55;;;;;;;2.97;2.53;;;;;;;19.97;41.98;102114.06;5077139;28;20137;-70
2023/12/19 01:33:21;;;;;;;4.13;3.17;;;;;;;19.94;41.83;102109.09;5076178;28;20036;-70
2023/12/19 01:35:46;;;;;;;3.20;2.90;;;;;;;19.90;41.88;102103.22;5081688;28;20036;-70
2023/12/19 01:38:13;;;;;;;3.63;2.65;;;;;;;19.95;41.80;102105.44;5078290;28;20040;-70
2023/12/19 01:40:39;;;;;;;3.95;3.10;;;;;;;19.97;41.80;102106.97;5088457;28;20039;-70
2023/12/19 01:43:21;;;;;;;3.00;2.63;;;;;;;20.00;41.76;102113.75;5076259;28;20028;-70
2023/12/19 01:45:48;;;;;;;3.33;2.55;;;;;;;19.92;41.77;102106.56;5087690;28;20163;-70
2023/12/19 01:48:16;;;;;;;3.50;2.60;;;;;;;19.90;41.85;102095.31;5079742;28;20044;-70
2023/12/19 01:50:42;;;;;;;3.13;2.83;;;;;;;19.86;41.91;102080.72;5088015;28;20091;-70
2023/12/19 01:53:08;;;;;;;2.90;2.50;;;;;;;19.96;41.97;102096.53;5078113;28;20039;-69
2023/12/19 01:55:33;;;;;;;4.25;3.17;;;;;;;19.77;41.69;102071.06;5084444;28;20523;-70
2023/12/19 01:57:59;;;;;;;3.30;2.65;;;;;;;19.83;41.75;102081.88;5081563;28;20046;-70
2023/12/19 02:00:25;;;;;;;3.40;3.10;;;;;;;19.88;41.97;102074.31;5087218;28;20040;-70
2023/12/19 02:02:52;;;;;;;3.92;3.03;;;;;;;19.95;41.89;102079.84;5090074;28;20035;-69
2023/12/19 02:05:17;;;;;;;3.05;2.70;;;;;;;19.94;41.69;102085.28;5081273;28;20047;-69
2023/12/19 02:07:43;;;;;;;2.42;2.22;;;;;;;19.79;41.86;102069.09;5086143;28;20043;-70
2023/12/19 02:10:09;;;;;;;3.50;2.80;;;;;;;19.90;41.86;102080.28;5075574;28;20051;-70
2023/12/19 02:12:36;;;;;;;3.08;2.60;;;;;;;19.94;41.89;102093.22;5084230;28;20096;-71
2023/12/19 02:15:02;;;;;;;2.78;2.38;;;;;;;19.94;41.81;102093.22;5077705;28;20303;-70
2023/12/19 02:17:28;;;;;;;3.25;2.60;;;;;;;19.94;41.82;102094.03;5083230;28;20568;-70
2023/12/19 02:19:53;;;;;;;2.72;2.30;;;;;;;19.92;41.85;102101.28;5080278;28;20040;-70
2023/12/19 02:22:20;;;;;;;3.72;3.00;;;;;;;19.85;41.72;102089.63;5076349;28;20043;-70
2023/12/19 02:24:45;;;;;;;3.28;2.72;;;;;;;19.96;41.76;102072.75;5082822;28;20036;-70
2023/12/19 02:27:12;;;;;;;3.42;2.45;;;;;;;19.98;41.63;102074.25;5078068;28;20040;-70
2023/12/19 02:29:38;;;;;;;2.95;2.63;;;;;;;20.05;41.61;102079.75;5066446;28;20063;-70
2023/12/19 02:32:03;;;;;;;3.00;2.60;;;;;;;20.06;41.58;102068.19;5072766;28;20172;-69
2023/12/19 02:34:29;;;;;;;3.53;2.95;;;;;;;20.08;41.63;102061.78;5080037;28;20522;-70
2023/12/19 02:36:56;;;;;;;3.08;2.63;;;;;;;20.04;41.61;102059.59;5081271;28;20534;-70
2023/12/19 02:39:22;;;;;;;2.65;2.35;;;;;;;20.11;41.57;102052.72;5078947;28;20093;-70
2023/12/19 02:41:48;;;;;;;2.55;2.35;;;;;;;20.09;41.60;102047.56;5079607;28;20037;-70
2023/12/19 02:44:14;;;;;;;2.65;2.40;;;;;;;20.04;41.53;102036.63;5085087;28;20446;-70
2023/12/19 02:46:40;;;;;;;2.63;2.40;;;;;;;20.05;41.78;102037.44;5079276;28;20047;-70
2023/12/19 02:49:06;;;;;;;3.17;2.88;;;;;;;20.06;41.71;102025.88;5083463;28;20075;-70
2023/12/19 02:51:31;;;;;;;3.05;2.30;;;;;;;20.06;41.67;102033.81;5084596;28;20048;-70
2023/12/19 02:53:58;;;;;;;2.50;2.30;;;;;;;20.02;41.70;102035.13;5093868;28;20156;-70
2023/12/19 02:56:24;;;;;;;2.72;2.53;;;;;;;20.06;41.66;102031.19;5090281;28;20805;-70
2023/12/19 02:58:50;;;;;;;2.83;2.53;;;;;;;20.04;41.63;102033.16;5088832;28;20512;-70
2023/12/19 03:01:15;;;;;;;2.53;2.33;;;;;;;20.04;41.71;102018.09;5087057;28;20046;-70
2023/12/19 03:03:43;;;;;;;3.22;2.45;;;;;;;20.01;41.67;102012.31;5092370;28;20047;-70
2023/12/19 03:06:09;;;;;;;2.75;2.53;;;;;;;19.71;41.69;101950.06;5088440;28;20808;-71
2023/12/19 03:08:35;;;;;;;2.40;2.20;;;;;;;20.03;41.71;101992.66;5078189;28;20055;-70
2023/12/19 03:11:01;;;;;;;2.65;2.30;;;;;;;19.92;41.77;101975.19;5085748;28;20492;-70
2023/12/19 03:13:27;;;;;;;2.67;2.40;;;;;;;19.89;41.70;101975.50;5088694;28;20047;-70
2023/12/19 03:15:52;;;;;;;2.60;2.15;;;;;;;20.03;41.83;101992.66;5083095;28;20043;-70
2023/12/19 03:18:23;;;;;;;2.33;2.13;;;;;;;20.02;41.85;101991.00;5083680;28;20044;-70
2023/12/19 03:20:49;;;;;;;2.38;2.10;;;;;;;19.89;41.76;101974.69;5088810;28;20032;-70
2023/12/19 03:23:15;;;;;;;2.53;2.25;;;;;;;19.99;41.80;101987.84;5083061;28;20551;-70
2023/12/19 03:25:41;;;;;;;2.83;2.40;;;;;;;19.95;41.76;101982.03;5081157;28;20114;-70
2023/12/19 03:28:06;;;;;;;2.22;2.03;;;;;;;19.91;41.86;101978.00;5082383;28;20144;-70
2023/12/19 03:30:32;;;;;;;2.88;2.58;;;;;;;19.96;41.73;101983.69;5082529;28;20052;-70
2023/12/19 03:32:57;;;;;;;2.83;2.58;;;;;;;19.85;41.71;101963.59;5076856;28;20032;-70
2023/12/19 03:35:23;;;;;;;2.40;2.20;;;;;;;19.96;41.77;101974.94;5077586;28;20468;-70
2023/12/19 03:37:50;;;;;;;2.53;2.33;;;;;;;19.95;41.64;101958.22;5090287;28;20047;-70
2023/12/19 03:40:16;;;;;;;2.78;2.10;;;;;;;19.87;41.86;101947.56;5088495;28;20487;-70
2023/12/19 03:42:42;;;;;;;2.58;2.13;;;;;;;19.92;41.82;101961.97;5075234;28;20032;-70
2023/12/19 03:45:08;;;;;;;3.20;2.40;;;;;;;19.79;41.90;101942.25;5084112;28;20356;-70
2023/12/19 03:47:34;;;;;;;3.15;2.47;;;;;;;19.81;41.81;101950.84;5079394;28;20047;-70
2023/12/19 03:50:00;;;;;;;1.95;1.83;;;;;;;19.90;41.82;101958.66;5078182;28;20043;-70
2023/12/19 03:52:25;;;;;;;2.22;2.03;;;;;;;19.88;41.85;101944.78;5070345;28;20047;-70
2023/12/19 03:54:51;;;;;;;2.40;2.20;;;;;;;19.84;41.90;101942.59;5082705;28;20097;-70
2023/12/19 03:57:17;;;;;;;2.47;2.20;;;;;;;19.74;41.93;101912.75;5075167;28;20115;-70
2023/12/19 03:59:44;;;;;;;2.25;2.05;;;;;;;19.81;41.81;101927.88;5076089;28;20373;-70
2023/12/19 04:02:10;;;;;;;2.72;2.15;;;;;;;19.74;41.93;101903.03;5079493;28;20684;-70
2023/12/19 04:04:35;;;;;;;2.90;2.10;;;;;;;19.81;41.76;101919.94;5074866;28;20047;-70
2023/12/19 04:07:01;;;;;;;2.30;2.10;;;;;;;19.86;41.87;101930.06;5074766;28;20032;-70
2023/12/19 04:09:27;;;;;;;2.25;2.05;;;;;;;19.56;41.86;101865.22;5083571;28;20463;-70
2023/12/19 04:11:52;;;;;;;3.38;3.10;;;;;;;19.85;41.83;101918.66;5089628;28;20176;-70
2023/12/19 04:14:18;;;;;;;3.13;2.92;;;;;;;19.76;42.06;101903.72;5068356;28;20486;-70
2023/12/19 04:16:43;;;;;;;4.57;4.15;;;;;;;19.84;41.84;101903.78;5084180;28;20043;-70
2023/12/19 04:19:09;;;;;;;2.35;2.15;;;;;;;19.79;41.79;101898.13;5080677;28;20035;-70
2023/12/19 04:21:36;;;;;;;2.05;1.95;;;;;;;19.79;41.85;101898.13;5081750;28;20813;-70
2023/12/19 04:24:05;;;;;;;2.22;1.98;;;;;;;19.83;41.95;101899.47;5075412;28;20044;-69
2023/12/19 04:26:31;;;;;;;2.30;1.97;;;;;;;19.71;41.88;101892.75;5079566;28;20125;-70
2023/12/19 04:28:56;;;;;;;2.28;2.08;;;;;;;19.77;41.83;101896.63;5077642;28;21044;-70
2023/12/19 04:31:22;;;;;;;2.35;2.05;;;;;;;19.85;41.79;101908.09;5120119;27;20040;-70
2023/12/19 04:33:47;;;;;;;2.15;1.80;;;;;;;19.75;41.79;101893.28;5078278;28;20066;-70
2023/12/19 04:36:13;;;;;;;2.35;2.15;;;;;;;19.86;41.79;101908.91;5085433;28;20043;-70
2023/12/19 04:38:39;;;;;;;2.40;1.95;;;;;;;19.86;41.83;101906.28;5082490;28;20036;-70
2023/12/19 04:41:05;;;;;;;2.22;2.03;;;;;;;19.58;41.82;101873.84;5082294;28;20035;-70
2023/12/19 04:43:30;;;;;;;2.15;1.75;;;;;;;19.75;41.87;101886.22;5078106;28;20705;-70
2023/12/19 04:45:56;;;;;;;2.05;1.95;;;;;;;19.84;41.83;101895.03;5078479;28;20030;-70
2023/12/19 04:48:22;;;;;;;1.88;1.77;;;;;;;19.81;41.73;101872.38;5083462;28;20044;-69
2023/12/19 04:50:47;;;;;;;1.92;1.83;;;;;;;19.94;41.54;101881.72;5081398;28;20090;-70
2023/12/19 04:53:13;;;;;;;2.10;1.90;;;;;;;19.98;41.59;101875.97;5080178;28;20052;-69
2023/12/19 04:55:38;;;;;;;1.95;1.75;;;;;;;19.98;41.51;101868.03;5077519;28;20024;-69
2023/12/19 04:58:04;;;;;;;2.20;2.00;;;;;;;19.95;41.55;101859.59;5084583;28;20044;-69
2023/12/19 05:00:29;;;;;;;1.95;1.70;;;;;;;20.01;41.65;101877.47;5081989;28;20033;-70
2023/12/19 05:02:55;;;;;;;1.63;1.52;;;;;;;19.90;41.71;101863.50;5080516;28;20044;-69
2023/12/19 05:05:21;;;;;;;1.65;1.55;;;;;;;19.98;41.72;101877.78;5080472;28;20031;-70
2023/12/19 05:07:47;;;;;;;1.63;1.52;;;;;;;19.96;41.71;101870.00;5083506;28;20032;-70
2023/12/19 05:10:12;;;;;;;2.08;1.60;;;;;;;19.97;41.73;101869.03;5081236;28;20071;-70
2023/12/19 05:12:38;;;;;;;1.60;1.50;;;;;;;19.97;41.73;101852.31;5087269;28;20090;-70
2023/12/19 05:15:04;;;;;;;1.73;1.58;;;;;;;19.87;41.73;101832.09;5085036;28;20036;-70
2023/12/19 05:17:30;;;;;;;1.92;1.70;;;;;;;19.64;41.72;101799.25;5084883;28;20152;-70
2023/12/19 05:19:56;;;;;;;1.75;1.50;;;;;;;19.93;41.83;101854.47;5083383;28;20051;-69
2023/12/19 05:22:21;;;;;;;2.25;1.77;;;;;;;19.84;41.87;101837.69;5088268;28;20036;-70
2023/12/19 05:24:47;;;;;;;1.70;1.60;;;;;;;19.91;41.82;101849.31;5082514;28;20059;-70
2023/12/19 05:27:12;;;;;;;1.60;1.50;;;;;;;19.91;41.83;101857.22;5081861;28;20039;-69
2023/12/19 05:29:38;;;;;;;1.88;1.63;;;;;;;19.91;41.82;101857.22;5093524;28;20502;-70
2023/12/19 05:32:07;;;;;;;1.85;1.75;;;;;;;19.91;41.86;101865.16;5084310;28;20044;-70
2023/12/19 05:34:32;;;;;;;2.03;1.90;;;;;;;19.90;41.91;101854.75;5083481;28;20456;-69
2023/12/19 05:36:58;;;;;;;2.30;2.10;;;;;;;19.87;41.79;101855.88;5086296;28;20039;-70
2023/12/19 05:39:24;;;;;;;1.65;1.55;;;;;;;19.86;41.88;101856.88;5085339;28;20048;-70
2023/12/19 05:41:51;;;;;;;1.83;1.60;;;;;;;19.80;41.90;101848.75;5082538;28;20036;-70
2023/12/19 05:44:17;;;;;;;3.08;1.80;;;;;;;19.83;41.86;101854.53;5081097;28;20047;-70
2023/12/19 05:46:43;;;;;;;1.40;1.30;;;;;;;19.81;41.84;101855.69;5083043;28;20380;-70
2023/12/19 05:49:09;;;;;;;1.60;1.50;;;;;;;19.69;41.85;101831.31;5083661;28;20051;-70
2023/12/19 05:51:38;;;;;;;1.65;1.55;;;;;;;19.84;41.88;101861.50;5079484;28;20460;-70
2023/12/19 05:54:05;;;;;;;2.05;1.70;;;;;;;19.77;41.96;101847.25;5088644;28;20044;-70
2023/12/19 05:56:30;;;;;;;1.80;1.55;;;;;;;19.81;41.93;101853.03;5066719;28;20097;-70
2023/12/19 05:58:56;;;;;;;1.63;1.52;;;;;;;19.82;41.93;101847.59;5083103;28;20040;-70
2023/12/19 06:01:21;;;;;;;1.45;1.35;;;;;;;19.78;41.94;101837.50;5075196;28;20032;-70
2023/12/19 06:03:47;;;;;;;1.08;1.05;;;;;;;19.81;41.91;101837.19;5080203;28;20055;-70
2023/12/19 06:06:14;;;;;;;1.40;1.23;;;;;;;19.72;41.88;101817.78;5088120;28;20039;-70
2023/12/19 06:08:39;;;;;;;1.58;1.48;;;;;;;19.74;42.02;101815.00;5077140;28;20028;-69
2023/12/19 06:11:06;;;;;;;1.40;1.23;;;;;;;19.75;42.01;101803.44;5086280;28;20051;-70
2023/12/19 06:13:32;;;;;;;1.52;1.42;;;;;;;19.80;42.00;101809.09;5079488;28;20614;-70
2023/12/19 06:15:57;;;;;;;1.45;1.35;;;;;;;19.79;42.05;101818.00;5076447;28;20033;-69
2023/12/19 06:18:23;;;;;;;1.50;1.40;;;;;;;19.76;42.09;101800.66;5077020;28;20039;-70
2023/12/19 06:20:48;;;;;;;1.60;1.50;;;;;;;19.68;42.14;101781.25;5080360;28;20043;-70
2023/12/19 06:23:14;;;;;;;1.50;1.40;;;;;;;19.78;42.18;101806.63;5086569;28;20028;-70
2023/12/19 06:25:39;;;;;;;2.28;1.48;;;;;;;19.78;42.05;101796.03;5077152;28;20044;-70
2023/12/19 06:28:05;;;;;;;1.50;1.40;;;;;;;19.77;42.08;101788.28;5091271;28;20054;-69
2023/12/19 06:30:31;;;;;;;1.58;1.48;;;;;;;19.74;42.17;101789.38;5082457;28;20401;-69
2023/12/19 06:32:56;;;;;;;1.70;1.60;;;;;;;19.73;42.12;101782.44;5084332;28;20105;-69
2023/12/19 06:35:23;;;;;;;1.48;1.38;;;;;;;19.75;42.35;101784.94;5076199;28;20032;-69
2023/12/19 06:37:49;;;;;;;1.13;1.13;;;;;;;19.67;41.99;101764.59;5119397;27;20036;-70
2023/12/19 06:40:14;;;;;;;1.25;1.15;;;;;;;19.75;42.15;101783.16;5085573;28;20059;-69
2023/12/19 06:42:40;;;;;;;1.67;1.58;;;;;;;19.76;42.15;101771.59;5087756;28;20040;-69
2023/12/19 06:45:06;;;;;;;1.80;1.27;;;;;;;19.68;42.24;101760.13;5085672;28;20040;-69
2023/12/19 06:47:33;;;;;;;1.30;1.20;;;;;;;19.61;42.17;101757.28;5085227;28;20080;-70
2023/12/19 06:49:59;;;;;;;1.30;1.30;;;;;;;19.70;42.06;101772.19;5090209;28;20132;-69
2023/12/19 06:52:24;;;;;;;1.30;1.20;;;;;;;19.75;42.08;101771.72;5088194;28;20035;-70
2023/12/19 06:54:50;;;;;;;1.70;1.40;;;;;;;19.66;42.23;101751.53;5083955;28;20040;-69
2023/12/19 06:57:15;;;;;;;1.27;1.17;;;;;;;19.76;42.32;101762.84;5086319;28;20035;-69
2023/12/19 06:59:41;;;;;;;1.15;1.05;;;;;;;19.67;42.09;101750.53;5076378;28;20120;-69
2023/12/19 07:02:07;;;;;;;0.90;0.90;;;;;;;19.70;42.19;101758.97;5095538;28;20054;-70
2023/12/19 07:04:33;;;;;;;1.38;1.27;;;;;;;19.73;42.09;101749.91;5085630;28;20041;-70
2023/12/19 07:06:58;;;;;;;1.52;1.42;;;;;;;19.69;42.23;101752.03;5081302;28;20086;-70
2023/12/19 07:09:24;;;;;;;1.27;1.17;;;;;;;19.70;42.25;101745.75;5078189;28;20044;-70
2023/12/19 07:11:49;;;;;;;1.05;1.02;;;;;;;19.65;42.32;101724.28;5090346;28;20088;-70
2023/12/19 07:14:15;;;;;;;1.20;1.10;;;;;;;19.71;42.33;101730.75;5082698;28;20044;-70
2023/12/19 07:16:40;;;;;;;1.73;1.30;;;;;;;19.94;41.85;101739.81;5084204;28;20032;-70
2023/12/19 07:19:06;;;;;;;1.25;1.15;;;;;;;20.23;41.44;101736.75;5083560;28;20039;-69
2023/12/19 07:21:32;;;;;;;1.52;1.20;;;;;;;20.80;40.69;101734.25;5088450;28;20031;-69
2023/12/19 07:23:59;;;;;;;1.65;1.55;;;;;;;21.31;39.61;101721.69;5079133;28;20060;-69
2023/12/19 07:26:27;;;;;;;1.13;1.10;;;;;;;21.55;39.30;101732.28;5084276;28;20051;-70
2023/12/19 07:28:53;;;;;;;1.73;1.10;;;;;;;21.55;39.32;101742.88;5078191;28;20055;-69
2023/12/19 07:31:31;;;;;;;1.13;1.13;;;;;;;21.35;39.48;101729.13;5085354;28;20040;-69
2023/12/19 07:34:03;;;;;;;1.30;1.23;;;;;;;21.23;40.14;101738.41;5080180;28;20427;-68
2023/12/19 07:36:29;;;;;;;2.47;1.10;;;;;;;21.15;40.18;101734.94;5111192;27;20048;-68
2023/12/19 07:38:55;;;;;;;1.10;1.10;;;;;;;20.99;40.24;101730.47;5074865;28;20123;-69
2023/12/19 07:41:22;;;;;;;1.10;1.00;;;;;;;20.86;40.47;101712.44;5085150;28;20032;-71
2023/12/19 07:43:48;;;;;;;1.17;1.08;;;;;;;20.88;40.71;101730.81;5082016;28;20101;-71
2023/12/19 07:46:14;;;;;;;1.00;1.00;;;;;;;20.72;40.86;101713.91;5076990;28;20468;-71
2023/12/19 07:48:40;;;;;;;1.15;1.13;;;;;;;20.74;41.07;101727.81;5080775;28;20039;-69
2023/12/19 07:51:06;;;;;;;1.13;1.00;;;;;;;20.63;41.16;101712.25;5080378;28;20125;-69
2023/12/19 07:53:32;;;;;;;0.90;0.90;;;;;;;20.54;41.15;101701.81;5076496;28;20172;-69
2023/12/19 07:56:00;;;;;;;1.10;1.00;;;;;;;20.68;41.16;101732.94;5077331;28;20791;-69
2023/12/19 07:58:27;;;;;;;0.80;0.80;;;;;;;20.65;41.04;101731.44;5078174;28;20124;-68
2023/12/19 08:00:52;;;;;;;0.93;0.80;;;;;;;20.58;41.38;101729.59;5075732;28;20050;-69
2023/12/19 08:03:18;;;;;;;0.68;0.68;;;;;;;20.61;41.17;101734.56;5092202;28;20484;-68
2023/12/19 08:05:50;;;;;;;1.00;1.00;;;;;;;20.58;41.29;101719.03;5074443;28;20090;-68
2023/12/19 08:08:17;;;;;;;0.90;0.90;;;;;;;20.38;41.37;101703.41;5083438;28;20065;-69
2023/12/19 08:10:44;;;;;;;0.98;0.93;;;;;;;20.43;41.70;101740.81;5022388;28;20109;-66
2023/12/19 08:13:10;;;;;;;1.05;1.05;;;;;;;20.39;41.63;101734.16;5080759;28;20035;-66
2023/12/19 08:15:35;;;;;;;1.10;1.00;;;;;;;20.45;41.65;101730.88;5086019;28;20048;-65
2023/12/19 08:18:01;;;;;;;0.80;0.80;;;;;;;20.12;41.66;101679.72;5077974;28;20051;-67
2023/12/19 08:20:26;;;;;;;0.80;0.80;;;;;;;20.43;41.66;101722.28;5090868;28;20077;-66
2023/12/19 08:22:52;;;;;;;0.88;0.88;;;;;;;20.45;41.43;101728.25;5085411;28;20058;-67
2023/12/19 08:25:17;;;;;;;0.70;0.70;;;;;;;20.45;41.58;101730.88;5027982;28;20768;-66
2023/12/19 08:27:44;;;;;;;1.00;1.00;;;;;;;20.49;41.49;101719.03;5079925;28;20039;-67
2023/12/19 08:30:10;;;;;;;0.57;0.57;;;;;;;20.50;41.65;101722.50;5026635;28;20036;-67
2023/12/19 08:32:36;;;;;;;0.70;0.70;;;;;;;20.49;41.64;101719.03;5070054;28;20199;-66
2023/12/19 08:35:02;;;;;;;0.60;0.60;;;;;;;20.45;41.64;101719.47;5061594;28;20050;-66
2023/12/19 08:37:28;;;;;;;0.93;0.70;;;;;;;20.45;41.37;101720.31;5083645;28;20028;-66
2023/12/19 08:39:56;;;;;;;0.80;0.80;;;;;;;20.32;41.56;101696.13;5024787;28;20475;-67
2023/12/19 08:42:23;;;;;;;0.52;0.52;;;;;;;20.49;41.50;101718.19;5082372;28;20376;-66
2023/12/19 08:44:52;;;;;;;0.75;0.75;;;;;;;20.37;41.53;101700.94;5031683;28;20040;-65
2023/12/19 08:47:18;;;;;;;2.13;1.17;;;;;;;20.19;41.57;101699.22;5093410;28;20062;-65
2023/12/19 08:49:44;;;;;;;1.02;0.95;;;;;;;20.17;42.12;101705.66;5030860;28;20581;-64
2023/12/19 08:52:10;;;;;;;0.82;0.82;;;;;;;20.16;42.37;101717.25;5070089;27;20043;-64
2023/12/19 08:54:36;;;;;;;0.57;0.57;;;;;;;20.16;42.21;101704.00;5078663;28;20052;-64
2023/12/19 08:57:02;;;;;;;0.55;0.55;;;;;;;20.18;42.17;101707.31;5045231;28;20138;-63
2023/12/19 08:59:28;;;;;;;0.60;0.60;;;;;;;20.05;42.31;101691.06;5071857;28;20490;-63
2023/12/19 09:01:55;;;;;;;0.90;0.90;;;;;;;20.09;42.29;101693.22;5054969;28;20037;-64
2023/12/19 09:04:21;;;;;;;0.63;0.63;;;;;;;20.17;42.22;101693.28;5063922;28;20030;-64
2023/12/19 09:06:50;;;;;;;0.85;0.85;;;;;;;20.09;42.11;101677.38;5074365;28;20028;-63
2023/12/19 09:09:16;;;;;;;0.80;0.80;;;;;;;20.08;42.29;101677.53;5043989;28;20368;-63
2023/12/19 09:11:42;;;;;;;0.60;0.60;;;;;;;20.17;42.16;101693.28;5087392;27;20056;-64
2023/12/19 09:14:11;;;;;;;1.15;0.90;;;;;;;20.15;42.11;101681.22;5031680;28;20707;-64
2023/12/19 09:16:37;;;;;;;0.70;0.70;;;;;;;20.05;42.30;101667.28;5073943;28;20031;-64
2023/12/19 09:19:03;;;;;;;1.10;0.75;;;;;;;20.16;42.26;101680.22;5077483;28;20032;-64
2023/12/19 09:21:29;;;;;;;0.65;0.65;;;;;;;20.18;42.20;101687.00;5087299;28;20040;-64
2023/12/19 09:23:54;;;;;;;0.65;0.65;;;;;;;20.18;42.21;101686.16;5032616;28;20036;-64
2023/12/19 09:26:20;;;;;;;0.60;0.60;;;;;;;20.09;42.12;101663.31;5082274;28;20067;-64
2023/12/19 09:28:46;;;;;;;84.15;74.65;;;;;;;20.15;42.17;101674.09;5041673;28;20036;-63
2023/12/19 09:31:11;;;;;;;0.82;0.70;;;;;;;20.13;42.12;101672.59;5077053;28;20380;-63
2023/12/19 09:33:39;;;;;;;0.80;0.80;;;;;;;20.11;42.21;101669.31;5035547;28;20043;-63
2023/12/19 09:36:07;;;;;;;0.85;0.85;;;;;;;20.15;42.22;101673.28;5086431;28;20063;-64
2023/12/19 09:38:32;;;;;;;0.52;0.52;;;;;;;20.13;42.25;101669.97;5032575;28;20035;-64
2023/12/19 09:40:58;;;;;;;0.80;0.80;;;;;;;20.20;42.12;101671.78;5032074;28;22718;-64
2023/12/19 09:43:24;;;;;;;0.73;0.73;;;;;;;20.46;41.72;101670.88;5084186;28;20039;-64
2023/12/19 09:45:50;;;;;;;0.50;0.50;;;;;;;20.72;41.14;101676.03;5055217;28;20033;-64
2023/12/19 09:48:18;;;;;;;0.82;0.65;;;;;;;20.92;41.01;101682.66;5042309;28;20048;-64
2023/12/19 09:50:47;;;;;;;0.80;0.70;;;;;;;20.97;40.76;101680.31;5085948;28;20044;-64
2023/12/19 09:53:14;;;;;;;0.57;0.57;;;;;;;20.88;40.95;101680.50;5032977;28;20036;-65
2023/12/19 09:55:43;;;;;;;0.63;0.63;;;;;;;20.79;40.97;101663.78;5088810;28;20049;-64
2023/12/19 09:58:12;;;;;;;0.40;0.40;;;;;;;20.59;41.06;101628.88;5031093;28;20068;-64
2023/12/19 10:00:41;;;;;;;0.70;0.70;;;;;;;20.70;41.12;101652.38;5066989;28;20176;-64
2023/12/19 10:03:06;;;;;;;0.50;0.50;;;;;;;20.70;41.30;101651.56;5088697;28;20376;-64
2023/12/19 10:05:32;;;;;;;1.33;0.70;;;;;;;20.68;41.38;101640.31;5035310;28;20469;-63
2023/12/19 10:07:58;;;;;;;0.38;0.38;;;;;;;20.64;41.53;101634.50;5083184;28;20573;-64
2023/12/19 10:10:53;;;;;;;0.70;0.70;;;;;;;20.60;41.65;101630.53;5035432;28;20056;-64
2023/12/19 10:13:36;;;;;;;0.43;0.43;;;;;;;20.59;41.40;101636.81;5085693;28;20414;-65
2023/12/19 10:16:03;;;;;;;0.65;0.65;;;;;;;20.61;41.51;101644.59;5028204;28;20050;-64
2023/12/19 10:18:28;;;;;;;0.60;0.60;;;;;;;20.60;41.58;101633.19;5080201;28;20027;-64
2023/12/19 10:21:11;;;;;;;0.55;0.55;;;;;;;20.56;41.57;101623.94;5037072;28;20075;-64
2023/12/19 10:23:37;;;;;;;0.43;0.40;;;;;;;20.58;42.06;101637.00;5065159;28;20049;-68
2023/12/19 10:26:04;;;;;;;0.60;0.57;;;;;;;20.45;42.19;101613.66;5088092;28;20032;-68
2023/12/19 10:28:30;;;;;;;0.45;0.40;;;;;;;20.48;42.30;101603.59;5087881;28;20040;-68
2023/12/19 10:31:15;;;;;;;0.32;0.32;;;;;;;20.66;41.91;101621.97;5034076;28;20123;-67
2023/12/19 10:33:42;;;;;;;0.40;0.40;;;;;;;20.52;41.95;101606.72;5085217;28;20052;-68
2023/12/19 10:36:09;;;;;;;0.80;0.80;;;;;;;20.29;41.84;101580.09;5041053;28;20090;-68
2023/12/19 10:38:48;;;;;;;1.65;0.65;;;;;;;20.59;41.98;101626.25;5084379;28;20345;-69
2023/12/19 10:41:33;;;;;;;1.05;0.70;;;;;;;20.61;42.03;101618.13;5039394;28;20105;-69
2023/12/19 10:44:01;;;;;;;0.47;0.47;;;;;;;20.59;41.87;101625.41;5050577;28;20034;-68
2023/12/19 10:46:28;;;;;;;0.70;0.70;;;;;;;20.61;41.97;101616.31;5071996;28;20031;-69
2023/12/19 10:48:57;;;;;;;0.50;0.50;;;;;;;20.63;41.84;101614.31;5062895;28;21499;-68
2023/12/19 10:51:47;;;;;;;0.60;0.60;;;;;;;20.62;41.87;101602.09;5095086;28;20363;-64
2023/12/19 10:54:14;;;;;;;;;;;;;;;20.64;41.65;101607.22;5030711;28;22421;-69
2023/12/19 10:56:54;;;;;;;0.60;0.60;;;;;;;20.60;41.88;101593.50;5082996;28;19950;-68
2023/12/19 10:59:47;;;;;;;0.38;0.38;;;;;;;20.58;41.67;101584.91;5026185;28;21400;-68
2023/12/19 11:02:37;;;;;;;1.25;0.50;;;;;;;20.60;41.79;101572.31;5089062;28;20372;-68
2023/12/19 11:05:36;;;;;;;0.50;0.50;;;;;;;20.60;41.88;101571.50;5028810;28;20038;-68
2023/12/19 11:08:12;;;;;;;0.80;0.60;;;;;;;20.43;41.69;101539.75;5062690;28;20028;-69
2023/12/19 11:10:39;;;;;;;0.20;0.20;;;;;;;20.48;42.01;101549.84;5093025;28;20147;-69
2023/12/19 11:13:05;;;;;;;0.60;0.60;;;;;;;20.48;41.65;101545.41;5035745;28;20124;-69
2023/12/19 11:15:34;;;;;;;0.70;0.70;;;;;;;20.57;41.72;101563.91;5079314;28;20127;-69
2023/12/19 11:18:10;;;;;;;0.95;0.50;;;;;;;20.58;41.66;101560.25;5047817;28;20129;-68
2023/12/19 11:20:56;;;;;;;2.70;0.50;;;;;;;20.49;41.84;101536.47;5085301;28;20101;-68
2023/12/19 11:23:25;;;;;;;0.57;0.57;;;;;;;20.61;41.52;101544.03;5023163;28;20039;-68